Time;durP1;ratioP1;P1;durP2;ratioP2;P2;SDS_P1;SDS_P2;PMS_P1;PMS_P2;Temp;Humidity;BMP_temperature;BMP_pressure;BME280_temperature;BME280_humidity;BME280_pressure;Samples;Min_cycle;Max_cycle;Signal;HPM_P1;HPM_P2
2021/08/31 00:02:19;;;;;;;2.75;2.33;;;21.40;63.50;;;;;;5061284;28;20029;-59
2021/08/31 00:04:46;;;;;;;5.63;2.50;;;21.40;63.60;;;;;;5061442;28;20153;-57
2021/08/31 00:07:12;;;;;;;4.30;2.65;;;21.40;63.60;;;;;;5062463;28;20416;-60
2021/08/31 00:09:39;;;;;;;5.15;2.60;;;21.40;63.70;;;;;;5060460;28;20017;-58
2021/08/31 00:12:06;;;;;;;4.88;3.28;;;21.40;63.90;;;;;;5063062;28;20036;-58
2021/08/31 00:14:35;;;;;;;3.72;2.60;;;21.40;63.90;;;;;;5062280;28;20021;-60
2021/08/31 00:17:03;;;;;;;5.15;3.10;;;21.40;64.10;;;;;;5061161;28;20099;-58
2021/08/31 00:19:29;;;;;;;3.85;2.97;;;21.30;64.40;;;;;;5061933;28;20433;-58
2021/08/31 00:21:56;;;;;;;5.82;2.80;;;21.30;64.50;;;;;;5061865;28;20509;-56
2021/08/31 00:24:22;;;;;;;4.35;2.67;;;21.30;64.80;;;;;;5059711;28;20408;-58
2021/08/31 00:26:49;;;;;;;6.55;3.63;;;21.30;67.30;;;;;;5062422;28;20384;-57
2021/08/31 00:29:15;;;;;;;8.60;4.93;;;21.20;68.70;;;;;;5062690;28;20399;-57
2021/08/31 00:31:42;;;;;;;6.43;3.50;;;21.10;69.60;;;;;;5060569;28;20021;-62
2021/08/31 00:34:08;;;;;;;5.78;3.60;;;21.00;69.90;;;;;;5062276;28;20039;-57
2021/08/31 00:36:35;;;;;;;7.13;3.85;;;20.90;70.50;;;;;;5044324;28;20021;-57
2021/08/31 00:39:02;;;;;;;4.50;2.85;;;20.90;70.60;;;;;;5060507;28;20028;-58
2021/08/31 00:41:28;;;;;;;4.57;3.40;;;21.00;70.60;;;;;;5060848;28;20060;-57
2021/08/31 00:43:54;;;;;;;5.03;2.88;;;21.00;69.20;;;;;;5061191;28;20045;-57
2021/08/31 00:46:22;;;;;;;5.13;3.28;;;21.00;68.80;;;;;;5051488;28;20040;-57
2021/08/31 00:48:52;;;;;;;6.88;3.42;;;21.00;67.30;;;;;;5050526;28;20515;-58
2021/08/31 00:51:23;;;;;;;5.07;2.90;;;21.00;67.20;;;;;;5049657;28;20044;-58
2021/08/31 00:53:51;;;;;;;4.20;3.20;;;21.00;67.20;;;;;;5050883;28;20291;-58
2021/08/31 00:56:19;;;;;;;4.68;2.80;;;21.00;67.90;;;;;;5051193;28;20032;-58
2021/08/31 00:58:46;;;;;;;5.25;3.22;;;21.00;67.30;;;;;;5048801;28;20040;-58
2021/08/31 01:01:12;;;;;;;5.57;3.13;;;21.00;67.30;;;;;;5051311;28;20488;-59
2021/08/31 01:03:41;;;;;;;3.78;2.80;;;21.10;67.00;;;;;;5050994;28;20033;-61
2021/08/31 01:06:08;;;;;;;3.58;2.90;;;21.00;67.10;;;;;;5050218;28;20041;-57
2021/08/31 01:08:34;;;;;;;5.10;2.70;;;21.00;67.10;;;;;;5050909;28;20033;-59
2021/08/31 01:11:02;;;;;;;5.18;2.97;;;21.00;67.10;;;;;;5046667;28;20037;-57
2021/08/31 01:13:34;;;;;;;5.68;3.22;;;21.00;67.30;;;;;;5050708;28;20028;-58
2021/08/31 01:16:01;;;;;;;5.85;2.88;;;21.00;67.30;;;;;;5033301;28;20032;-60
2021/08/31 01:18:29;;;;;;;4.80;2.92;;;21.00;67.20;;;;;;5032392;28;20048;-57
2021/08/31 01:20:58;;;;;;;4.43;2.80;;;21.00;67.20;;;;;;5051158;28;20043;-58
2021/08/31 01:23:25;;;;;;;4.82;2.60;;;20.90;67.10;;;;;;5048121;28;20041;-58
2021/08/31 01:25:57;;;;;;;4.00;2.78;;;21.00;67.30;;;;;;5050472;28;20048;-59
2021/08/31 01:28:28;;;;;;;5.28;2.80;;;20.90;67.30;;;;;;5049801;28;20033;-58
2021/08/31 01:30:57;;;;;;;3.95;2.92;;;20.90;67.40;;;;;;5050275;28;20048;-58
2021/08/31 01:33:30;;;;;;;5.25;3.05;;;20.90;67.50;;;;;;5050594;28;20029;-58
2021/08/31 01:35:56;;;;;;;4.68;3.60;;;20.80;67.40;;;;;;5051649;28;20041;-56
2021/08/31 01:38:23;;;;;;;3.83;2.67;;;20.80;67.60;;;;;;5055001;28;20376;-58
2021/08/31 01:40:50;;;;;;;5.85;3.28;;;20.80;67.70;;;;;;5053777;28;20053;-57
2021/08/31 01:43:22;;;;;;;6.32;3.35;;;20.80;68.00;;;;;;5053979;28;20044;-59
2021/08/31 01:45:49;;;;;;;5.68;3.03;;;20.80;68.30;;;;;;5064959;28;20053;-59
2021/08/31 01:48:15;;;;;;;5.90;3.50;;;20.80;68.60;;;;;;5074976;28;20032;-57
2021/08/31 01:50:42;;;;;;;7.60;3.78;;;20.80;69.00;;;;;;5074006;28;20040;-58
2021/08/31 01:53:08;;;;;;;4.70;3.47;;;20.80;69.40;;;;;;5074230;28;20036;-61
2021/08/31 01:55:35;;;;;;;9.80;3.20;;;20.80;69.60;;;;;;5057015;28;20507;-57
2021/08/31 01:58:02;;;;;;;6.20;3.85;;;20.80;70.00;;;;;;5074410;28;20025;-58
2021/08/31 02:00:29;;;;;;;7.72;3.80;;;20.80;70.10;;;;;;5056554;28;20043;-59
2021/08/31 02:02:56;;;;;;;7.35;3.80;;;20.80;70.60;;;;;;5074838;28;20028;-58
2021/08/31 02:05:25;;;;;;;5.90;4.18;;;20.70;70.60;;;;;;5073153;28;20047;-61
2021/08/31 02:07:51;;;;;;;7.25;3.90;;;20.80;70.90;;;;;;5073575;28;20043;-59
2021/08/31 02:10:18;;;;;;;5.80;3.28;;;20.70;70.70;;;;;;5073508;28;20032;-59
2021/08/31 02:12:44;;;;;;;5.85;3.65;;;20.70;70.60;;;;;;5071575;28;20386;-61
2021/08/31 02:15:11;;;;;;;4.90;3.80;;;20.70;70.50;;;;;;5074786;28;20475;-58
2021/08/31 02:17:37;;;;;;;6.85;3.63;;;20.80;70.50;;;;;;5074537;28;20039;-58
2021/08/31 02:20:08;;;;;;;5.75;3.92;;;20.70;71.20;;;;;;5052890;28;20043;-59
2021/08/31 02:22:35;;;;;;;;;;;20.70;71.50;;;;;;5073639;28;20059;-59
2021/08/31 02:25:02;;;;;;;6.78;3.83;;;20.70;71.80;;;;;;5074088;28;20291;-60
2021/08/31 02:27:28;;;;;;;9.13;4.63;;;20.70;72.40;;;;;;5073943;28;20036;-58
2021/08/31 02:29:55;;;;;;;8.25;4.60;;;20.70;73.40;;;;;;5074389;28;20044;-56
2021/08/31 02:32:21;;;;;;;6.40;3.60;;;20.70;73.50;;;;;;5072373;28;20032;-59
2021/08/31 02:34:48;;;;;;;6.40;4.32;;;20.70;73.80;;;;;;5074022;28;20025;-61
2021/08/31 02:37:14;;;;;;;6.72;5.00;;;20.70;74.20;;;;;;5072303;28;20508;-60
2021/08/31 02:39:41;;;;;;;6.53;4.80;;;20.70;74.40;;;;;;5073375;28;20487;-58
2021/08/31 02:42:08;;;;;;;7.45;5.32;;;20.70;74.40;;;;;;5073904;28;20036;-58
2021/08/31 02:44:34;;;;;;;8.98;5.38;;;20.70;75.00;;;;;;5073113;28;20055;-59
2021/08/31 02:47:01;;;;;;;5.07;4.53;;;20.70;75.60;;;;;;5073179;28;20021;-57
2021/08/31 02:49:27;;;;;;;7.07;5.07;;;20.60;75.50;;;;;;5073643;28;20033;-58
2021/08/31 02:51:55;;;;;;;9.30;4.63;;;20.60;75.20;;;;;;5072104;28;20060;-58
2021/08/31 02:54:21;;;;;;;8.55;4.13;;;20.60;75.50;;;;;;5072505;28;20051;-58
2021/08/31 02:56:48;;;;;;;6.85;4.32;;;20.60;75.40;;;;;;5073748;28;20472;-58
2021/08/31 02:59:14;;;;;;;6.93;4.07;;;20.70;75.90;;;;;;5072648;28;20032;-59
2021/08/31 03:04:26;;;;;;;5.80;4.88;;;20.60;76.00;;;;;;5073830;28;20115;-58
2021/08/31 03:06:53;;;;;;;7.57;5.68;;;20.60;76.50;;;;;;5072213;28;20029;-60
2021/08/31 03:09:19;;;;;;;9.15;5.15;;;20.60;76.60;;;;;;5072587;28;20097;-60
2021/08/31 03:11:46;;;;;;;8.25;5.43;;;20.50;76.70;;;;;;5072696;28;20043;-57
2021/08/31 03:14:12;;;;;;;7.40;5.20;;;20.60;76.60;;;;;;5072690;28;20049;-59
2021/08/31 03:16:39;;;;;;;6.75;5.15;;;20.60;76.60;;;;;;5072241;28;20032;-58
2021/08/31 03:19:05;;;;;;;6.10;4.60;;;20.50;76.40;;;;;;5072309;28;20033;-59
2021/08/31 03:21:32;;;;;;;6.97;4.50;;;20.50;76.40;;;;;;5053102;28;20064;-58
2021/08/31 03:23:58;;;;;;;6.13;4.22;;;20.50;76.10;;;;;;5055083;28;20029;-59
2021/08/31 03:26:26;;;;;;;6.63;4.55;;;20.50;75.90;;;;;;5037148;28;20043;-58
2021/08/31 03:28:53;;;;;;;5.85;4.38;;;20.50;75.90;;;;;;5071229;28;20048;-59
2021/08/31 03:31:19;;;;;;;8.68;4.97;;;20.50;75.70;;;;;;5073668;28;20373;-58
2021/08/31 03:33:46;;;;;;;8.85;4.40;;;20.50;75.90;;;;;;5074034;28;20489;-64
2021/08/31 03:36:13;;;;;;;5.55;4.03;;;20.50;75.80;;;;;;5073614;28;20055;-57
2021/08/31 03:38:39;;;;;;;8.40;4.13;;;20.40;76.10;;;;;;5074171;28;20033;-57
2021/08/31 03:41:06;;;;;;;8.00;4.15;;;20.50;76.10;;;;;;5073601;28;20033;-58
2021/08/31 03:43:32;;;;;;;5.22;4.25;;;20.40;75.70;;;;;;5074008;28;20044;-57
2021/08/31 03:45:59;;;;;;;6.00;4.95;;;20.40;75.80;;;;;;5072617;28;20041;-58
2021/08/31 03:48:25;;;;;;;6.38;4.82;;;20.40;75.80;;;;;;5071871;28;20045;-59
2021/08/31 03:50:52;;;;;;;8.05;4.60;;;20.40;76.00;;;;;;5073170;28;20050;-57
2021/08/31 03:53:18;;;;;;;6.47;5.15;;;20.30;76.40;;;;;;5071862;28;20496;-57
2021/08/31 03:55:45;;;;;;;8.73;5.43;;;20.30;76.70;;;;;;5072186;28;20049;-58
2021/08/31 03:58:11;;;;;;;7.22;5.32;;;20.40;77.30;;;;;;5070740;28;20051;-57
2021/08/31 04:00:38;;;;;;;7.13;5.03;;;20.40;76.70;;;;;;5054337;28;20037;-57
2021/08/31 04:03:04;;;;;;;6.57;4.80;;;20.30;76.40;;;;;;5072044;28;20028;-58
2021/08/31 04:05:31;;;;;;;10.00;4.78;;;20.20;76.40;;;;;;5054320;28;20059;-57
2021/08/31 04:07:57;;;;;;;6.22;4.70;;;20.20;76.30;;;;;;5071385;28;20048;-56
2021/08/31 04:10:24;;;;;;;7.43;4.43;;;20.20;77.00;;;;;;5071227;28;20039;-58
2021/08/31 04:12:50;;;;;;;7.30;5.20;;;20.20;76.30;;;;;;5072274;28;20029;-58
2021/08/31 04:15:17;;;;;;;8.27;4.95;;;20.20;76.80;;;;;;5072484;28;20037;-58
2021/08/31 04:17:43;;;;;;;12.40;4.70;;;20.20;77.40;;;;;;5071968;28;20024;-59
2021/08/31 04:20:10;;;;;;;8.00;6.03;;;20.20;77.90;;;;;;5054787;28;20051;-58
2021/08/31 04:22:37;;;;;;;8.05;5.03;;;20.10;78.70;;;;;;5054526;28;20392;-58
2021/08/31 04:25:04;;;;;;;8.68;5.07;;;20.10;79.20;;;;;;5071295;28;20045;-55
2021/08/31 04:27:30;;;;;;;7.97;5.88;;;20.10;79.50;;;;;;5071269;28;20052;-57
2021/08/31 04:29:57;;;;;;;12.60;5.93;;;20.10;80.00;;;;;;5071928;28;20039;-57
2021/08/31 04:32:23;;;;;;;7.85;5.63;;;20.00;80.10;;;;;;5071842;28;20028;-56
2021/08/31 04:34:52;;;;;;;11.30;6.63;;;20.00;80.50;;;;;;5037114;28;20056;-58
2021/08/31 04:37:19;;;;;;;7.53;6.72;;;20.00;80.70;;;;;;5072317;28;20028;-58
2021/08/31 04:39:45;;;;;;;10.80;6.07;;;20.10;80.90;;;;;;5070272;28;20396;-58
2021/08/31 04:42:11;;;;;;;7.78;5.43;;;20.10;80.70;;;;;;5070619;28;20051;-57
2021/08/31 04:44:38;;;;;;;7.97;5.68;;;20.20;80.80;;;;;;5030490;28;1173900;-58
2021/08/31 04:47:04;;;;;;;6.88;5.18;;;20.10;81.50;;;;;;5054518;28;20036;-58
2021/08/31 04:49:31;;;;;;;6.05;4.70;;;20.10;81.20;;;;;;5072423;28;20040;-58
2021/08/31 04:51:57;;;;;;;7.93;5.32;;;20.20;81.70;;;;;;5072885;28;20388;-58
2021/08/31 04:54:24;;;;;;;8.73;5.25;;;20.10;82.20;;;;;;5071346;28;20059;-57
2021/08/31 04:56:50;;;;;;;9.88;4.97;;;20.10;82.80;;;;;;5072347;28;20035;-58
2021/08/31 04:59:17;;;;;;;6.13;4.45;;;20.10;83.20;;;;;;5072563;28;20032;-58
2021/08/31 05:01:43;;;;;;;6.30;5.13;;;20.10;83.50;;;;;;5071668;28;20067;-58
2021/08/31 05:04:11;;;;;;;7.35;5.95;;;20.00;84.10;;;;;;5054398;28;20370;-57
2021/08/31 05:06:37;;;;;;;10.27;5.55;;;20.00;84.40;;;;;;5072448;28;20400;-58
2021/08/31 05:09:04;;;;;;;7.75;5.50;;;20.00;84.50;;;;;;5071264;28;20052;-58
2021/08/31 05:11:31;;;;;;;6.88;5.15;;;20.00;84.80;;;;;;5072300;28;20028;-58
2021/08/31 05:13:57;;;;;;;9.23;5.75;;;20.00;84.90;;;;;;5072155;28;20047;-57
2021/08/31 05:16:24;;;;;;;7.80;5.68;;;20.10;85.20;;;;;;5072108;28;20028;-58
2021/08/31 05:18:50;;;;;;;7.88;5.38;;;20.10;85.10;;;;;;5071114;28;20045;-58
2021/08/31 05:21:17;;;;;;;8.02;6.03;;;20.10;85.30;;;;;;5053443;28;20504;-58
2021/08/31 05:23:43;;;;;;;6.53;5.38;;;20.00;85.40;;;;;;5071125;28;20045;-57
2021/08/31 05:26:10;;;;;;;8.93;6.43;;;20.00;85.40;;;;;;5053707;28;20396;-58
2021/08/31 05:28:36;;;;;;;6.45;5.28;;;20.00;85.40;;;;;;5072042;28;20044;-58
2021/08/31 05:31:03;;;;;;;8.70;5.55;;;20.00;85.60;;;;;;5071462;28;20059;-58
2021/08/31 05:33:29;;;;;;;8.20;5.43;;;20.00;85.70;;;;;;5070971;28;20040;-57
2021/08/31 05:35:56;;;;;;;10.32;5.00;;;20.10;85.70;;;;;;5071957;28;20039;-58
2021/08/31 05:38:22;;;;;;;8.75;4.97;;;20.10;85.70;;;;;;5072240;28;20044;-58
2021/08/31 05:40:49;;;;;;;6.53;4.63;;;20.00;86.40;;;;;;5071066;28;20052;-59
2021/08/31 05:43:15;;;;;;;7.78;4.53;;;20.10;85.80;;;;;;5070620;28;20397;-56
2021/08/31 05:45:42;;;;;;;6.22;4.60;;;20.10;85.70;;;;;;5072023;28;20052;-61
2021/08/31 05:48:09;;;;;;;6.85;4.68;;;20.10;85.60;;;;;;5070409;28;20033;-59
2021/08/31 05:50:36;;;;;;;5.65;4.07;;;20.00;85.60;;;;;;5072069;28;20468;-60
2021/08/31 05:53:03;;;;;;;6.63;4.80;;;20.00;85.80;;;;;;5071738;28;20032;-59
2021/08/31 05:55:29;;;;;;;8.88;4.60;;;20.00;85.80;;;;;;5053282;28;20044;-60
2021/08/31 05:57:55;;;;;;;6.25;4.35;;;20.00;85.80;;;;;;5071404;28;20025;-65
2021/08/31 06:00:22;;;;;;;9.68;3.78;;;20.00;85.70;;;;;;5072416;28;20368;-57
2021/08/31 06:02:48;;;;;;;9.27;4.38;;;20.00;85.20;;;;;;5071907;28;20492;-57
2021/08/31 06:05:15;;;;;;;7.28;3.70;;;20.00;85.60;;;;;;5071756;28;20476;-58
2021/08/31 06:07:42;;;;;;;4.70;3.70;;;20.00;85.10;;;;;;5072014;28;20033;-58
2021/08/31 06:10:09;;;;;;;4.00;2.60;;;20.10;85.00;;;;;;5071296;28;20048;-58
2021/08/31 06:12:36;;;;;;;4.85;3.15;;;20.10;84.80;;;;;;5071470;28;20028;-58
2021/08/31 06:15:03;;;;;;;7.03;3.40;;;20.10;84.90;;;;;;5070446;28;20392;-58
2021/08/31 06:17:31;;;;;;;5.03;3.50;;;20.10;85.10;;;;;;5071169;28;20025;-60
2021/08/31 06:19:58;;;;;;;7.82;3.65;;;20.10;84.90;;;;;;5052562;28;20051;-60
2021/08/31 06:22:24;;;;;;;5.72;3.55;;;20.10;85.10;;;;;;5072729;28;20033;-59
2021/08/31 06:24:51;;;;;;;4.47;3.38;;;20.10;85.20;;;;;;5072842;28;20377;-57
2021/08/31 06:27:17;;;;;;;10.52;3.72;;;20.00;85.20;;;;;;5073772;28;20056;-59
2021/08/31 06:29:44;;;;;;;7.30;3.78;;;20.00;85.40;;;;;;5040786;28;20033;-58
2021/08/31 06:32:10;;;;;;;7.78;2.95;;;20.00;85.20;;;;;;5074622;28;20032;-58
2021/08/31 06:34:36;;;;;;;7.88;2.92;;;20.00;85.30;;;;;;5074026;28;20405;-57
2021/08/31 06:37:03;;;;;;;6.47;3.03;;;20.00;85.00;;;;;;5056041;28;20044;-58
2021/08/31 06:39:30;;;;;;;4.40;2.83;;;20.00;84.60;;;;;;5072765;28;20051;-60
2021/08/31 06:41:56;;;;;;;7.82;3.60;;;20.00;84.30;;;;;;5074851;28;20039;-57
2021/08/31 06:44:23;;;;;;;4.63;3.00;;;20.00;84.40;;;;;;5073666;28;20048;-59
2021/08/31 06:46:49;;;;;;;5.30;2.92;;;20.00;84.20;;;;;;5073542;28;20056;-58
2021/08/31 06:49:16;;;;;;;7.50;4.57;;;20.00;84.20;;;;;;5056475;28;20056;-57
2021/08/31 06:51:42;;;;;;;11.30;7.55;;;20.10;83.80;;;;;;5074733;28;20036;-59
2021/08/31 06:54:09;;;;;;;12.98;7.13;;;20.10;83.70;;;;;;5074417;28;20044;-55
2021/08/31 06:56:36;;;;;;;6.93;4.18;;;20.10;83.00;;;;;;5074750;28;20036;-57
2021/08/31 06:59:03;;;;;;;3.95;2.97;;;20.20;82.60;;;;;;5074129;28;20045;-58
2021/08/31 07:01:31;;;;;;;8.13;3.63;;;20.20;82.20;;;;;;5073678;28;20053;-58
2021/08/31 07:03:57;;;;;;;6.40;3.58;;;20.10;82.50;;;;;;5074788;28;20029;-56
2021/08/31 07:06:24;;;;;;;5.07;3.70;;;20.20;82.70;;;;;;5074667;28;20025;-56
2021/08/31 07:08:51;;;;;;;5.18;3.58;;;20.20;82.70;;;;;;5073705;28;20044;-56
2021/08/31 07:11:17;;;;;;;5.53;3.30;;;20.20;82.90;;;;;;5074294;28;20032;-58
2021/08/31 07:13:44;;;;;;;6.28;3.40;;;20.30;82.90;;;;;;5056581;28;20043;-53
2021/08/31 07:16:10;;;;;;;5.20;2.85;;;20.30;82.50;;;;;;5056260;28;20036;-54
2021/08/31 07:18:37;;;;;;;5.47;2.75;;;20.30;81.10;;;;;;5072397;28;20024;-53
2021/08/31 07:21:03;;;;;;;8.45;2.30;;;20.30;80.60;;;;;;5038671;28;20036;-54
2021/08/31 07:23:30;;;;;;;3.92;2.15;;;20.40;80.80;;;;;;5072719;28;20068;-54
2021/08/31 07:25:56;;;;;;;3.03;1.90;;;20.40;78.50;;;;;;5071457;28;20040;-56
2021/08/31 07:28:23;;;;;;;2.65;1.90;;;20.40;76.80;;;;;;5070025;28;20424;-55
2021/08/31 07:30:50;;;;;;;16.20;2.85;;;20.50;77.00;;;;;;5071114;28;20052;-54
2021/08/31 07:33:16;;;;;;;4.38;2.08;;;20.50;77.60;;;;;;5070695;28;20021;-53
2021/08/31 07:35:44;;;;;;;5.53;2.88;;;20.50;77.80;;;;;;5072029;28;20040;-58
2021/08/31 07:38:10;;;;;;;5.43;2.25;;;20.60;77.10;;;;;;5070783;28;20052;-54
2021/08/31 07:40:37;;;;;;;3.40;2.20;;;20.70;76.70;;;;;;5071044;28;20051;-54
2021/08/31 07:43:03;;;;;;;5.13;2.70;;;20.70;77.00;;;;;;5073893;28;20063;-52
2021/08/31 07:45:30;;;;;;;3.50;2.25;;;20.60;77.10;;;;;;5072585;28;20052;-55
2021/08/31 07:47:57;;;;;;;6.47;2.60;;;20.60;77.20;;;;;;5073277;28;20043;-53
2021/08/31 07:50:23;;;;;;;9.45;3.40;;;20.70;77.60;;;;;;5072627;28;20048;-54
2021/08/31 07:52:49;;;;;;;6.25;3.30;;;20.80;77.20;;;;;;5073105;28;20044;-55
2021/08/31 07:55:17;;;;;;;3.65;2.60;;;20.90;77.20;;;;;;5072676;28;20048;-53
2021/08/31 07:57:44;;;;;;;5.97;3.00;;;20.90;77.40;;;;;;5073102;28;20036;-54
2021/08/31 08:00:13;;;;;;;5.25;3.15;;;20.90;77.00;;;;;;5073794;28;20024;-51
2021/08/31 08:02:40;;;;;;;5.45;3.00;;;20.90;77.20;;;;;;5072579;28;20055;-55
2021/08/31 08:05:07;;;;;;;4.72;2.90;;;20.90;77.50;;;;;;5072314;28;20053;-51
2021/08/31 08:07:33;;;;;;;5.68;2.80;;;20.90;77.00;;;;;;5072747;28;20037;-52
2021/08/31 08:10:00;;;;;;;8.30;3.15;;;21.00;77.00;;;;;;5071987;28;20041;-48
2021/08/31 08:12:26;;;;;;;4.65;2.78;;;21.00;76.60;;;;;;5073230;28;20048;-55
2021/08/31 08:14:53;;;;;;;5.75;3.00;;;21.10;76.30;;;;;;5072535;28;20045;-52
2021/08/31 08:17:21;;;;;;;7.55;2.90;;;21.00;76.20;;;;;;5072065;28;20499;-51
2021/08/31 08:19:49;;;;;;;3.33;2.30;;;21.00;76.10;;;;;;5073158;28;20036;-49
2021/08/31 08:22:16;;;;;;;4.20;2.85;;;21.10;76.00;;;;;;5072451;28;20477;-53
2021/08/31 08:24:43;;;;;;;7.60;4.40;;;21.20;76.10;;;;;;5072567;28;20041;-54
2021/08/31 08:27:10;;;;;;;5.47;2.67;;;21.20;75.70;;;;;;5073080;28;20028;-53
2021/08/31 08:29:37;;;;;;;5.45;2.88;;;21.30;75.50;;;;;;5072401;28;20061;-51
2021/08/31 08:32:09;;;;;;;3.10;2.15;;;21.30;74.70;;;;;;5072819;28;20045;-49
2021/08/31 08:34:36;;;;;;;4.43;2.90;;;21.30;74.70;;;;;;5071839;28;20049;-50
2021/08/31 08:37:03;;;;;;;6.22;2.78;;;21.50;74.30;;;;;;5073061;28;20024;-52
2021/08/31 08:39:32;;;;;;;4.47;2.60;;;21.50;73.80;;;;;;5071803;28;20059;-52
2021/08/31 08:41:59;;;;;;;4.03;2.65;;;21.60;73.20;;;;;;5071872;28;20052;-51
2021/08/31 08:44:27;;;;;;;6.53;2.78;;;21.70;72.20;;;;;;5071573;28;20068;-54
2021/08/31 08:46:54;;;;;;;4.10;2.80;;;21.90;72.30;;;;;;5072888;28;20047;-54
2021/08/31 08:49:21;;;;;;;5.00;2.45;;;22.10;72.00;;;;;;5071641;28;20056;-51
2021/08/31 08:51:48;;;;;;;5.47;2.67;;;22.10;71.70;;;;;;5072880;28;20024;-53
2021/08/31 08:54:14;;;;;;;6.93;2.88;;;22.20;70.90;;;;;;5071587;28;20049;-54
2021/08/31 08:56:40;;;;;;;4.80;2.65;;;22.10;70.50;;;;;;5072164;28;20051;-52
2021/08/31 08:59:07;;;;;;;5.78;3.60;;;22.20;70.20;;;;;;5071998;28;20047;-55
2021/08/31 09:01:47;;;;;;;4.82;3.22;;;22.20;69.90;;;;;;5071815;28;20055;-54
2021/08/31 09:04:16;;;;;;;4.65;2.70;;;22.30;69.90;;;;;;5071528;28;20048;-52
2021/08/31 09:06:45;;;;;;;3.25;2.40;;;22.40;69.00;;;;;;5072050;28;20067;-53
2021/08/31 09:09:13;;;;;;;5.18;2.20;;;22.40;68.20;;;;;;5070731;28;20485;-54
2021/08/31 09:11:46;;;;;;;3.75;2.03;;;22.50;68.80;;;;;;5071652;28;20048;-57
2021/08/31 09:14:27;;;;;;;3.80;2.22;;;22.70;68.00;;;;;;5053935;28;20049;-53
2021/08/31 09:16:57;;;;;;;3.67;2.30;;;22.80;67.20;;;;;;5071076;28;20044;-55
2021/08/31 09:19:38;;;;;;;;;;;22.90;66.00;;;;;;5071778;28;20036;-55
2021/08/31 09:22:20;;;;;;;3.10;2.03;;;23.00;65.70;;;;;;5071353;28;20383;-58
2021/08/31 09:25:08;;;;;;;2.72;2.30;;;23.00;64.40;;;;;;5071148;28;20060;-48
2021/08/31 09:27:43;;;;;;;3.67;2.53;;;22.80;66.30;;;;;;5071450;28;20045;-54
2021/08/31 09:30:27;;;;;;;3.97;2.28;;;22.90;67.10;;;;;;5071332;28;20032;-58
2021/08/31 09:33:03;;;;;;;4.60;2.67;;;23.10;66.50;;;;;;5071069;28;20040;-53
2021/08/31 09:35:31;;;;;;;5.57;2.92;;;23.30;66.80;;;;;;5071455;28;20048;-53
2021/08/31 09:38:06;;;;;;;4.22;2.42;;;23.30;66.00;;;;;;5072732;28;20070;-53
2021/08/31 09:40:38;;;;;;;7.43;3.20;;;23.30;64.70;;;;;;5071114;28;20052;-54
2021/08/31 09:43:09;;;;;;;4.70;2.75;;;23.30;64.60;;;;;;5071050;28;20065;-48
2021/08/31 09:45:38;;;;;;;5.57;2.72;;;23.30;65.00;;;;;;5071152;28;20048;-52
2021/08/31 09:48:08;;;;;;;4.85;2.83;;;23.40;65.10;;;;;;5070942;28;20040;-51
2021/08/31 09:50:43;;;;;;;6.43;2.55;;;23.40;65.30;;;;;;5071498;28;20044;-52
2021/08/31 09:53:14;;;;;;;5.18;2.88;;;23.60;64.80;;;;;;5070867;28;20044;-55
2021/08/31 09:55:41;;;;;;;;;;;23.60;64.20;;;;;;5072478;28;20037;-53
2021/08/31 09:58:25;;;;;;;4.55;2.97;;;23.70;63.50;;;;;;5074817;28;19915;-51
2021/08/31 10:00:53;;;;;;;6.20;3.83;;;23.70;63.10;;;;;;5074956;28;20051;-51
2021/08/31 10:03:22;;;;;;;5.63;3.65;;;23.60;63.10;;;;;;5074929;28;20056;-54
2021/08/31 10:05:50;;;;;;;5.13;3.80;;;23.40;64.40;;;;;;5075071;28;20496;-53
2021/08/31 10:08:18;;;;;;;4.00;2.65;;;23.20;65.60;;;;;;5074738;28;20044;-53
2021/08/31 10:10:48;;;;;;;6.25;3.80;;;23.30;65.10;;;;;;5075031;28;20396;-50
2021/08/31 10:13:21;;;;;;;6.80;3.83;;;23.50;64.40;;;;;;5074159;28;20126;-53
2021/08/31 10:15:50;;;;;;;3.83;3.05;;;23.60;64.30;;;;;;5074839;28;20048;-52
2021/08/31 10:18:19;;;;;;;5.20;3.15;;;23.70;64.30;;;;;;5074745;28;20515;-50
2021/08/31 10:20:48;;;;;;;5.47;4.07;;;23.80;63.30;;;;;;5074708;28;20064;-50
2021/08/31 10:23:23;;;;;;;4.13;2.85;;;23.80;63.20;;;;;;5075325;28;20520;-53
2021/08/31 10:25:49;;;;;;;5.85;3.65;;;23.90;63.20;;;;;;5074102;28;20055;-52
2021/08/31 10:28:21;;;;;;;4.97;3.17;;;23.90;62.70;;;;;;5056553;28;20051;-54
2021/08/31 10:30:48;;;;;;;5.35;2.88;;;23.90;62.30;;;;;;5074210;28;20472;-52
2021/08/31 10:33:37;;;;;;;5.05;3.50;;;24.00;61.80;;;;;;5074862;28;20036;-51
2021/08/31 10:36:10;;;;;;;4.47;3.30;;;24.00;60.70;;;;;;5074337;28;20041;-52
2021/08/31 10:38:51;;;;;;;7.72;3.97;;;24.00;60.80;;;;;;5075208;28;20251;-50
2021/08/31 10:41:47;;;;;;;7.10;2.72;;;24.00;60.90;;;;;;5074486;28;20033;-49
2021/08/31 10:44:34;;;;;;;5.72;3.22;;;24.00;61.00;;;;;;5057152;28;20489;-53
2021/08/31 10:47:06;;;;;;;7.20;2.70;;;24.10;60.30;;;;;;5074707;28;20465;-52
2021/08/31 10:49:56;;;;;;;6.55;3.10;;;24.10;60.30;;;;;;5074901;28;20425;-51
2021/08/31 10:52:38;;;;;;;4.85;3.03;;;24.20;59.80;;;;;;5074748;28;20032;-50
2021/08/31 10:55:06;;;;;;;5.10;4.07;;;24.30;59.70;;;;;;5074813;28;20040;-53
2021/08/31 10:57:35;;;;;;;4.25;2.88;;;24.40;59.60;;;;;;5074873;28;20017;-48
2021/08/31 11:00:16;;;;;;;5.38;2.58;;;24.30;59.60;;;;;;5074843;28;20040;-52
2021/08/31 11:05:24;;;;;;;6.50;3.17;;;24.40;59.10;;;;;;5074918;28;20358;-53
2021/08/31 11:08:13;;;;;;;11.32;3.00;;;24.30;58.60;;;;;;5074622;28;20503;-54
2021/08/31 11:10:42;;;;;;;7.05;3.45;;;24.20;59.00;;;;;;5055422;28;20484;-53
2021/08/31 11:13:17;;;;;;;18.83;4.65;;;24.20;59.60;;;;;;5074586;28;20036;-52
2021/08/31 11:15:48;;;;;;;5.82;3.13;;;24.20;59.50;;;;;;5074607;28;20381;-54
2021/08/31 11:18:19;;;;;;;5.65;2.97;;;24.30;59.30;;;;;;5074682;28;20032;-50
2021/08/31 11:20:46;;;;;;;6.10;3.50;;;24.40;59.00;;;;;;5073418;28;20052;-51
2021/08/31 11:23:16;;;;;;;4.88;3.22;;;24.50;58.30;;;;;;5074381;28;20385;-54
2021/08/31 11:25:46;;;;;;;5.90;3.17;;;24.30;57.40;;;;;;5074712;28;20032;-51
2021/08/31 11:28:17;;;;;;;3.75;2.53;;;24.10;58.00;;;;;;5074434;28;20032;-51
2021/08/31 11:31:01;;;;;;;6.18;2.55;;;24.30;57.40;;;;;;5073671;28;20044;-54
2021/08/31 11:33:36;;;;;;;5.80;2.80;;;24.40;57.00;;;;;;5074263;28;20499;-54
2021/08/31 11:36:07;;;;;;;4.25;3.05;;;24.50;56.90;;;;;;5056324;28;20408;-52
2021/08/31 11:38:35;;;;;;;9.38;3.20;;;24.70;56.80;;;;;;5073121;28;20035;-52
2021/08/31 11:41:27;;;;;;;10.32;2.83;;;24.80;57.00;;;;;;5054994;28;20044;-50
2021/08/31 11:43:55;;;;;;;5.20;3.17;;;24.90;57.20;;;;;;5073742;28;20500;-53
2021/08/31 11:46:30;;;;;;;6.97;5.18;;;24.80;57.70;;;;;;5073414;28;20068;-54
2021/08/31 11:49:16;;;;;;;20.73;15.05;;;24.70;57.50;;;;;;5072646;28;20049;-54
2021/08/31 11:51:44;;;;;;;12.10;7.70;;;24.70;57.70;;;;;;5074050;28;20495;-52
2021/08/31 11:54:14;;;;;;;7.68;3.97;;;24.70;58.00;;;;;;5072844;28;20036;-52
2021/08/31 11:56:50;;;;;;;5.50;3.47;;;24.80;57.80;;;;;;5055829;28;20392;-53
2021/08/31 11:59:52;;;;;;;8.70;3.00;;;24.90;57.60;;;;;;5073416;28;20035;-53
2021/08/31 12:02:39;;;;;;;4.80;3.15;;;25.10;56.90;;;;;;4970273;28;20050;-51
2021/08/31 12:05:07;;;;;;;4.60;2.90;;;25.10;56.10;;;;;;5064079;28;20052;-51
2021/08/31 12:07:36;;;;;;;4.97;3.38;;;25.10;56.20;;;;;;5070512;28;20492;-54
2021/08/31 12:10:07;;;;;;;5.15;3.40;;;25.20;56.40;;;;;;5070631;28;20045;-53
2021/08/31 12:12:34;;;;;;;6.20;3.70;;;24.70;57.70;;;;;;5053341;28;20481;-53
2021/08/31 12:15:03;;;;;;;5.47;3.65;;;24.60;57.60;;;;;;5072321;28;20040;-53
2021/08/31 12:17:32;;;;;;;3.85;2.53;;;24.70;57.20;;;;;;5072406;28;20033;-50
2021/08/31 12:20:06;;;;;;;5.47;2.60;;;24.90;57.40;;;;;;5071283;28;20045;-54
2021/08/31 12:22:37;;;;;;;5.32;2.78;;;25.10;56.90;;;;;;5072536;28;20047;-53
2021/08/31 12:25:06;;;;;;;5.63;3.30;;;25.20;56.20;;;;;;5072545;28;20040;-52
2021/08/31 12:27:37;;;;;;;4.85;3.42;;;25.30;56.10;;;;;;5071790;28;20044;-54
2021/08/31 12:30:05;;;;;;;4.72;3.50;;;25.40;55.30;;;;;;5072165;28;20040;-50
2021/08/31 12:32:32;;;;;;;7.75;3.92;;;25.40;55.40;;;;;;5073260;28;20039;-49
2021/08/31 12:35:24;;;;;;;4.63;3.40;;;25.30;55.70;;;;;;5071982;28;20547;-49
2021/08/31 12:38:26;;;;;;;5.28;3.47;;;25.40;56.10;;;;;;5072286;28;20487;-53
2021/08/31 12:40:53;;;;;;;5.15;3.60;;;25.30;56.00;;;;;;5020274;28;20044;-56
2021/08/31 12:43:21;;;;;;;5.20;2.70;;;25.40;56.20;;;;;;5072391;28;20057;-52
2021/08/31 12:45:50;;;;;;;8.00;3.05;;;25.40;56.00;;;;;;5071290;28;20377;-48
2021/08/31 12:48:16;;;;;;;6.03;2.97;;;25.50;55.30;;;;;;5071799;28;20048;-52
2021/08/31 12:50:54;;;;;;;5.50;3.20;;;25.40;54.60;;;;;;5071412;28;20405;-49
2021/08/31 12:53:33;;;;;;;3.88;2.58;;;25.40;54.80;;;;;;5071779;28;20047;-52
2021/08/31 12:56:02;;;;;;;4.83;3.00;;;25.40;54.90;;;;;;5071901;28;20512;-48
2021/08/31 12:58:36;;;;;;;4.32;3.15;;;25.40;55.10;;;;;;5072313;28;20045;-50
2021/08/31 13:01:17;;;;;;;5.22;3.03;;;25.40;55.20;;;;;;5071631;28;20040;-51
2021/08/31 13:03:45;;;;;;;3.80;2.65;;;25.40;54.40;;;;;;5072937;28;20048;-48